Terminal Aerodrome Forecast
Issued by NWS Shreveport, LA

Home | Current Version | Previous Version | Text Only | Print | Product List | Glossary On
Versions: 1 2 3 4 5 6 7 8 9 10 11 12 13
090
FTUS44 KSHV 060546
TAFLFK
TAF
KLFK 060546Z 0606/0706 00000KT P6SM SCT250
     FM061500 15005KT 6SM -RA BR OVC035
     FM061800 05005KT 5SM -RA BKN015
     FM062100 05005KT P6SM BKN100
     FM070000 02002KT P6SM SKC=

USA.gov is the U.S. government's official web portal to all federal, state and local government web resources and services.